Airport Information

KNOW - Port Angeles Cgas Airport

KNOW 160710Z AUTO 01009KT 10SM SCT013 BKN120 06/04 A2977 RMK AO2 T00610039


  • General Information

  • Coordinates: N 48°8'29"/ W 123°24'50"
  • Location: N/A
  • Surveyed Elevation: 13 MSL

Operations

Flow Name Active Runways Conditions

Green background denotes normal operations.


Common Frequencies

Callsign Frequency Position Name

More at the Document Center


Charts